createdAt,value
2023-02-01T00:02:13.793Z,4.20
2023-02-01T00:04:40.609Z,4.43
2023-02-01T00:07:07.689Z,4.00
2023-02-01T00:09:34.552Z,3.38
2023-02-01T00:12:02.912Z,4.00
2023-02-01T00:14:30.004Z,4.03
2023-02-01T00:16:56.750Z,4.85
2023-02-01T00:19:23.478Z,4.07
2023-02-01T00:21:50.204Z,3.13
2023-02-01T00:24:17.068Z,4.30
2023-02-01T00:26:45.265Z,2.90
2023-02-01T00:29:16.503Z,3.50
2023-02-01T00:31:43.685Z,3.42
2023-02-01T00:34:14.985Z,3.38
2023-02-01T00:36:42.329Z,3.70
2023-02-01T00:39:09.272Z,3.67
2023-02-01T00:41:35.978Z,3.75
2023-02-01T00:44:02.778Z,3.42
2023-02-01T00:46:29.691Z,3.83
2023-02-01T00:48:56.530Z,3.30
2023-02-01T00:51:25.029Z,4.53
2023-02-01T00:53:51.990Z,3.50
2023-02-01T00:56:18.815Z,3.15
2023-02-01T00:58:46.266Z,3.00
2023-02-01T01:01:21.470Z,3.10
2023-02-01T01:03:51.614Z,6.70
2023-02-01T01:06:29.703Z,2.63
2023-02-01T01:08:58.941Z,3.50
2023-02-01T01:11:27.624Z,5.00
2023-02-01T01:13:55.319Z,3.28
2023-02-01T01:16:22.534Z,3.72
2023-02-01T01:18:49.403Z,3.17
2023-02-01T01:21:16.543Z,3.42
2023-02-01T01:23:43.584Z,4.00
2023-02-01T01:26:13.107Z,4.15
2023-02-01T01:28:39.917Z,2.88
2023-02-01T01:31:12.888Z,3.45
2023-02-01T01:33:39.797Z,3.28
2023-02-01T01:36:07.826Z,3.78
2023-02-01T01:38:34.515Z,3.00
2023-02-01T01:41:02.505Z,3.17
2023-02-01T01:43:52.786Z,3.53
2023-02-01T01:46:30.712Z,2.45
2023-02-01T01:49:18.701Z,2.72
2023-02-01T01:51:50.730Z,3.00
2023-02-01T01:54:21.198Z,2.90
2023-02-01T01:56:50.182Z,3.17
2023-02-01T01:59:17.008Z,3.80
2023-02-01T02:01:43.935Z,2.97
2023-02-01T02:04:10.806Z,3.50
2023-02-01T02:06:58.484Z,3.05
2023-02-01T02:09:25.234Z,3.35
2023-02-01T02:11:51.980Z,3.42
2023-02-01T02:14:19.263Z,3.00
2023-02-01T02:16:55.733Z,3.05
2023-02-01T02:19:57.483Z,2.85
2023-02-01T02:23:01.474Z,2.75
2023-02-01T02:25:56.563Z,3.95
2023-02-01T02:28:37.919Z,2.55
2023-02-01T02:31:43.318Z,2.25
2023-02-01T02:34:20.937Z,3.38
2023-02-01T02:37:08.054Z,2.60
2023-02-01T02:39:34.711Z,3.08
2023-02-01T02:42:30.356Z,3.40
2023-02-01T02:45:28.969Z,2.92
2023-02-01T02:48:26.572Z,2.78
2023-02-01T02:51:20.783Z,3.28
2023-02-01T02:54:20.014Z,2.40
2023-02-01T02:57:05.077Z,2.75
2023-02-01T02:59:50.116Z,2.53
2023-02-01T03:02:35.327Z,3.00
2023-02-01T03:05:02.100Z,1.92
2023-02-01T03:07:54.729Z,2.58
2023-02-01T03:10:34.497Z,2.60
2023-02-01T03:13:11.617Z,2.30
2023-02-01T03:15:44.864Z,2.92
2023-02-01T03:18:21.659Z,2.65
2023-02-01T03:20:49.792Z,2.53
2023-02-01T03:23:17.978Z,4.80
2023-02-01T03:25:44.745Z,2.90
2023-02-01T03:28:11.535Z,2.70
2023-02-01T03:30:39.898Z,2.45
2023-02-01T03:33:14.749Z,2.78
2023-02-01T03:36:07.610Z,2.47
2023-02-01T03:39:08.381Z,2.97
2023-02-01T03:41:47.797Z,3.60
2023-02-01T03:44:18.596Z,2.95
2023-02-01T03:47:08.549Z,2.83
2023-02-01T03:49:43.122Z,3.08
2023-02-01T03:52:12.625Z,2.97
2023-02-01T03:54:39.403Z,2.50
2023-02-01T03:57:09.657Z,3.47
2023-02-01T03:59:40.825Z,2.80
2023-02-01T04:02:07.862Z,2.25
2023-02-01T04:04:35.458Z,2.50
2023-02-01T04:07:02.199Z,3.80
2023-02-01T04:09:28.978Z,2.88
2023-02-01T04:11:55.713Z,2.55
2023-02-01T04:14:22.561Z,2.55
2023-02-01T04:16:49.517Z,2.72
2023-02-01T04:19:16.351Z,2.75
2023-02-01T04:21:43.132Z,2.63
2023-02-01T04:24:09.906Z,2.67
2023-02-01T04:26:36.814Z,2.92
2023-02-01T04:29:03.529Z,2.63
2023-02-01T04:31:30.381Z,4.20
2023-02-01T04:33:58.637Z,3.30
2023-02-01T04:36:25.437Z,3.10
2023-02-01T04:38:52.430Z,3.00
2023-02-01T04:41:20.063Z,2.60
2023-02-01T04:43:47.705Z,1.67
2023-02-01T04:46:14.575Z,1.60
2023-02-01T04:48:41.491Z,2.30
2023-02-01T04:51:08.225Z,2.45
2023-02-01T04:53:34.940Z,2.90
2023-02-01T04:56:01.786Z,2.63
2023-02-01T04:58:28.532Z,2.75
2023-02-01T05:00:55.248Z,2.30
2023-02-01T05:03:21.989Z,2.70
2023-02-01T05:05:49.783Z,2.88
2023-02-01T05:08:16.699Z,2.38
2023-02-01T05:10:43.515Z,2.50
2023-02-01T05:13:29.505Z,2.40
2023-02-01T05:15:56.320Z,2.30
2023-02-01T05:18:23.172Z,2.63
2023-02-01T05:20:50.292Z,2.92
2023-02-01T05:23:17.075Z,2.63
2023-02-01T05:25:43.764Z,2.83
2023-02-01T05:28:10.540Z,2.42
2023-02-01T05:30:37.483Z,4.38
2023-02-01T05:33:04.355Z,4.78
2023-02-01T05:35:31.140Z,1.90
2023-02-01T05:37:57.929Z,2.40
2023-02-01T05:40:25.151Z,2.50
2023-02-01T05:42:52.093Z,2.65
2023-02-01T05:45:18.879Z,2.55
2023-02-01T05:47:45.646Z,2.25
2023-02-01T05:50:12.454Z,2.83
2023-02-01T05:52:39.183Z,2.95
2023-02-01T05:55:06.258Z,4.32
2023-02-01T05:57:32.976Z,3.47
2023-02-01T06:00:00.742Z,2.88
2023-02-01T06:02:27.791Z,2.42
2023-02-01T06:04:54.522Z,2.90
2023-02-01T06:07:21.672Z,2.42
2023-02-01T06:09:48.457Z,2.53
2023-02-01T06:12:15.210Z,2.20
2023-02-01T06:14:42.062Z,2.10
2023-02-01T06:17:09.346Z,3.10
2023-02-01T06:19:36.128Z,2.78
2023-02-01T06:22:02.892Z,2.22
2023-02-01T06:24:29.684Z,2.30
2023-02-01T06:26:56.421Z,2.55
2023-02-01T06:29:23.378Z,2.30
2023-02-01T06:31:50.361Z,2.92
2023-02-01T06:34:17.236Z,2.58
2023-02-01T06:36:43.933Z,2.35
2023-02-01T06:39:10.686Z,3.10
2023-02-01T06:41:37.426Z,3.05
2023-02-01T06:44:04.228Z,5.38
2023-02-01T06:46:31.097Z,8.60
2023-02-01T06:48:57.919Z,3.72
2023-02-01T06:51:28.227Z,3.58
2023-02-01T06:53:55.047Z,3.25
2023-02-01T06:56:21.926Z,3.00
2023-02-01T06:58:48.760Z,3.28
2023-02-01T07:01:15.539Z,2.38
2023-02-01T07:03:42.442Z,2.53
2023-02-01T07:06:10.809Z,2.30
2023-02-01T07:08:38.637Z,2.55
2023-02-01T07:11:06.961Z,2.85
2023-02-01T07:13:33.823Z,3.17
2023-02-01T07:16:02.048Z,2.70
2023-02-01T07:18:29.999Z,2.90
2023-02-01T07:20:56.878Z,2.53
2023-02-01T07:23:23.936Z,2.70
2023-02-01T07:25:53.729Z,3.05
2023-02-01T07:28:20.475Z,3.55
2023-02-01T07:30:51.936Z,1.92
2023-02-01T07:33:22.739Z,2.25
2023-02-01T07:35:49.973Z,2.17
2023-02-01T07:38:17.122Z,2.20
2023-02-01T07:40:44.040Z,2.03
2023-02-01T07:43:10.810Z,1.83
2023-02-01T07:45:37.726Z,2.22
2023-02-01T07:48:04.805Z,1.95
2023-02-01T07:50:31.649Z,2.20
2023-02-01T07:53:01.902Z,2.25
2023-02-01T07:55:28.834Z,2.63
2023-02-01T07:57:59.917Z,2.10
2023-02-01T08:00:45.693Z,1.67
2023-02-01T08:03:12.537Z,2.10
2023-02-01T08:05:39.323Z,1.95
2023-02-01T08:08:06.455Z,1.98
2023-02-01T08:10:33.216Z,2.30
2023-02-01T08:13:00.967Z,3.22
2023-02-01T08:15:28.541Z,4.88
2023-02-01T08:17:55.989Z,3.55
2023-02-01T08:20:24.448Z,3.22
2023-02-01T08:22:54.306Z,2.33
2023-02-01T08:25:21.561Z,3.15
2023-02-01T08:27:48.305Z,3.05
2023-02-01T08:30:15.265Z,4.07
2023-02-01T08:32:42.103Z,3.15
2023-02-01T08:35:09.457Z,4.80
2023-02-01T08:37:36.409Z,3.22
2023-02-01T08:40:04.346Z,5.18
2023-02-01T08:42:49.470Z,5.43
2023-02-01T08:45:16.290Z,5.82
2023-02-01T08:47:43.024Z,3.40
2023-02-01T08:50:10.560Z,4.13
2023-02-01T08:52:38.269Z,3.20
2023-02-01T08:55:06.496Z,3.33
2023-02-01T08:57:34.053Z,4.32
2023-02-01T09:00:01.225Z,5.07
2023-02-01T09:02:28.008Z,5.82
2023-02-01T09:04:55.043Z,3.30
2023-02-01T09:07:21.847Z,3.65
2023-02-01T09:09:48.643Z,3.30
2023-02-01T09:12:15.384Z,3.60
2023-02-01T09:14:42.112Z,3.72
2023-02-01T09:17:08.944Z,2.85
2023-02-01T09:19:35.796Z,3.40
2023-02-01T09:22:02.548Z,2.67
2023-02-01T09:24:29.276Z,1.90
2023-02-01T09:26:56.130Z,2.45
2023-02-01T09:29:22.852Z,2.22
2023-02-01T09:32:01.583Z,1.95
2023-02-01T09:34:30.132Z,1.98
2023-02-01T09:36:56.946Z,1.95
2023-02-01T09:39:23.922Z,2.00
2023-02-01T09:42:30.280Z,1.70
2023-02-01T09:45:21.819Z,1.77
2023-02-01T09:47:56.982Z,2.08
2023-02-01T09:50:34.867Z,2.10
2023-02-01T09:53:13.021Z,2.63
2023-02-01T09:55:44.978Z,3.00
2023-02-01T09:58:31.260Z,2.25
2023-02-01T10:00:59.374Z,2.00
2023-02-01T10:03:29.338Z,2.28
2023-02-01T10:06:21.197Z,2.40
2023-02-01T10:09:02.489Z,1.90
2023-02-01T10:11:29.224Z,1.73
2023-02-01T10:14:17.485Z,2.58
2023-02-01T10:17:15.825Z,1.70
2023-02-01T10:19:51.826Z,2.20
2023-02-01T10:25:41.676Z,9.40
2023-02-01T10:28:08.700Z,5.63
2023-02-01T10:30:46.708Z,4.05
2023-02-01T10:33:43.282Z,5.38
2023-02-01T10:36:30.311Z,4.38
2023-02-01T10:39:01.101Z,2.05
2023-02-01T10:41:32.736Z,1.60
2023-02-01T10:43:59.793Z,4.25
2023-02-01T10:46:26.954Z,1.60
2023-02-01T10:48:54.551Z,1.98
2023-02-01T10:51:24.219Z,1.98
2023-02-01T10:53:58.586Z,1.55
2023-02-01T10:56:26.678Z,1.67
2023-02-01T10:59:00.660Z,1.42
2023-02-01T11:01:41.445Z,1.80
2023-02-01T11:04:14.911Z,1.70
2023-02-01T11:06:42.844Z,1.45
2023-02-01T11:09:09.549Z,1.40
2023-02-01T11:11:54.775Z,0.85
2023-02-01T11:14:26.714Z,1.30
2023-02-01T11:16:53.987Z,1.50
2023-02-01T11:19:20.740Z,1.15
2023-02-01T11:21:54.403Z,1.33
2023-02-01T11:24:35.891Z,1.17
2023-02-01T11:27:06.660Z,1.07
2023-02-01T11:29:37.696Z,1.30
2023-02-01T11:32:04.704Z,1.00
2023-02-01T11:34:52.077Z,1.50
2023-02-01T11:37:28.785Z,1.15
2023-02-01T11:39:59.984Z,1.00
2023-02-01T11:42:27.456Z,0.97
2023-02-01T11:45:18.341Z,0.90
2023-02-01T11:47:47.021Z,1.37
2023-02-01T11:50:19.249Z,1.23
2023-02-01T11:53:19.342Z,1.10
2023-02-01T11:56:04.584Z,1.17
2023-02-01T11:59:08.157Z,0.93
2023-02-01T12:02:04.249Z,0.97
2023-02-01T12:04:49.465Z,0.80
2023-02-01T12:07:20.798Z,1.10
2023-02-01T12:10:05.845Z,1.00
2023-02-01T12:12:39.829Z,0.80
2023-02-01T12:15:48.359Z,0.83
2023-02-01T12:18:33.848Z,0.97
2023-02-01T12:21:03.295Z,1.07
2023-02-01T12:23:55.915Z,0.93
2023-02-01T12:26:40.872Z,1.00
2023-02-01T12:29:22.164Z,1.90
2023-02-01T12:32:08.803Z,1.10
2023-02-01T12:34:51.776Z,1.10
2023-02-01T12:37:56.635Z,0.83
2023-02-01T12:40:32.295Z,0.80
2023-02-01T12:43:16.318Z,0.63
2023-02-01T12:45:45.908Z,0.80
2023-02-01T12:48:18.192Z,0.60
2023-02-01T12:50:51.170Z,0.70
2023-02-01T12:53:53.069Z,1.30
2023-02-01T12:56:27.813Z,0.80
2023-02-01T12:58:56.824Z,0.60
2023-02-01T13:01:29.204Z,0.80
2023-02-01T13:04:07.165Z,0.73
2023-02-01T13:06:40.153Z,0.60
2023-02-01T13:09:15.889Z,0.60
2023-02-01T13:11:46.044Z,0.67
2023-02-01T13:14:38.210Z,0.63
2023-02-01T13:17:15.991Z,0.70
2023-02-01T13:19:51.688Z,0.60
2023-02-01T13:22:26.521Z,0.80
2023-02-01T13:25:01.628Z,0.53
2023-02-01T13:27:31.431Z,0.70
2023-02-01T13:30:07.446Z,0.70
2023-02-01T13:33:52.722Z,0.80
2023-02-01T13:35:57.999Z,0.60
2023-02-01T13:38:56.070Z,1.13
2023-02-01T13:41:29.702Z,1.07
2023-02-01T13:44:12.194Z,0.77
2023-02-01T13:46:43.148Z,0.70
2023-02-01T13:49:19.637Z,0.70
2023-02-01T13:51:48.476Z,1.10
2023-02-01T13:54:32.850Z,0.90
2023-02-01T13:57:00.432Z,2.93
2023-02-01T13:59:42.511Z,0.80
2023-02-01T14:02:43.563Z,0.70
2023-02-01T14:05:11.533Z,0.87
2023-02-01T14:07:41.946Z,1.00
2023-02-01T14:10:56.946Z,1.00
2023-02-01T14:13:39.887Z,1.60
2023-02-01T14:16:10.307Z,1.50
2023-02-01T14:18:42.203Z,0.87
2023-02-01T14:21:23.685Z,1.00
2023-02-01T14:24:01.627Z,1.17
2023-02-01T14:26:51.350Z,0.90
2023-02-01T14:29:21.913Z,0.83
2023-02-01T14:32:03.448Z,1.00
2023-02-01T14:34:33.220Z,1.03
2023-02-01T14:37:02.292Z,1.07
2023-02-01T14:39:33.056Z,0.70
2023-02-01T14:42:15.536Z,0.83
2023-02-01T14:44:58.888Z,2.30
2023-02-01T14:47:33.127Z,1.30
2023-02-01T14:50:14.494Z,1.30
2023-02-01T14:52:44.546Z,1.53
2023-02-01T14:55:17.893Z,1.40
2023-02-01T14:57:44.856Z,1.07
2023-02-01T15:00:26.882Z,1.40
2023-02-01T15:02:54.473Z,0.93
2023-02-01T15:05:27.223Z,1.33
2023-02-01T15:07:54.020Z,1.27
2023-02-01T15:10:20.900Z,1.63
2023-02-01T15:12:49.526Z,1.43
2023-02-01T15:15:22.053Z,1.27
2023-02-01T15:17:56.818Z,1.17
2023-02-01T15:20:25.523Z,1.00
2023-02-01T15:22:59.039Z,1.23
2023-02-01T15:25:28.955Z,0.90
2023-02-01T15:27:56.097Z,1.07
2023-02-01T15:30:25.225Z,1.30
2023-02-01T15:32:52.337Z,1.40
2023-02-01T15:35:39.541Z,0.90
2023-02-01T15:38:22.545Z,1.13
2023-02-01T15:40:59.125Z,1.80
2023-02-01T15:43:26.163Z,4.43
2023-02-01T15:45:53.587Z,4.53
2023-02-01T15:48:23.532Z,3.20
2023-02-01T15:50:51.080Z,2.93
2023-02-01T15:53:20.651Z,2.53
2023-02-01T15:55:48.796Z,26.60
2023-02-01T15:58:20.308Z,27.73
2023-02-01T16:00:48.259Z,16.80
2023-02-01T16:03:28.940Z,16.40
2023-02-01T16:06:00.181Z,9.97
2023-02-01T16:08:28.641Z,10.67
2023-02-01T16:11:09.962Z,7.20
2023-02-01T16:13:36.784Z,5.67
2023-02-01T16:16:04.944Z,4.23
2023-02-01T16:18:31.729Z,4.87
2023-02-01T16:20:58.413Z,5.40
2023-02-01T16:23:25.208Z,3.55
2023-02-01T16:25:52.012Z,3.28
2023-02-01T16:28:18.845Z,3.20
2023-02-01T16:30:45.610Z,3.37
2023-02-01T16:33:16.118Z,3.37
2023-02-01T16:35:43.106Z,2.30
2023-02-01T16:38:14.211Z,2.28
2023-02-01T16:40:41.825Z,2.45
2023-02-01T16:43:24.833Z,2.13
2023-02-01T16:45:53.044Z,1.83
2023-02-01T16:48:26.156Z,1.73
2023-02-01T16:50:55.459Z,2.20
2023-02-01T16:53:22.561Z,1.85
2023-02-01T16:55:50.440Z,1.60
2023-02-01T16:58:17.792Z,2.00
2023-02-01T17:00:45.049Z,1.60
2023-02-01T17:03:17.674Z,1.67
2023-02-01T17:05:52.895Z,1.90
2023-02-01T17:08:23.949Z,2.20
2023-02-01T17:10:50.714Z,2.17
2023-02-01T17:13:17.531Z,2.00
2023-02-01T17:15:57.500Z,2.33
2023-02-01T17:18:25.898Z,2.10
2023-02-01T17:20:53.102Z,2.47
2023-02-01T17:23:20.632Z,2.53
2023-02-01T17:25:48.780Z,3.33
2023-02-01T17:28:15.671Z,1.98
2023-02-01T17:30:42.519Z,2.53
2023-02-01T17:33:23.104Z,2.00
2023-02-01T17:35:50.373Z,3.45
2023-02-01T17:38:17.363Z,2.40
2023-02-01T17:40:44.096Z,3.33
2023-02-01T17:43:15.304Z,3.50
2023-02-01T17:45:52.710Z,4.20
2023-02-01T17:48:22.860Z,3.75
2023-02-01T17:50:52.614Z,3.07
2023-02-01T17:53:20.443Z,2.83
2023-02-01T17:55:47.412Z,2.72
2023-02-01T17:58:15.408Z,3.17
2023-02-01T18:00:42.249Z,2.40
2023-02-01T18:03:26.568Z,2.63
2023-02-01T18:05:54.603Z,2.17
2023-02-01T18:08:25.831Z,1.95
2023-02-01T18:10:56.601Z,2.88
2023-02-01T18:13:23.304Z,2.30
2023-02-01T18:15:50.061Z,2.10
2023-02-01T18:18:16.933Z,2.10
2023-02-01T18:20:44.453Z,2.22
2023-02-01T18:23:19.764Z,2.60
2023-02-01T18:25:47.325Z,2.72
2023-02-01T18:28:15.917Z,3.70
2023-02-01T18:30:43.937Z,2.90
2023-02-01T18:33:15.292Z,2.45
2023-02-01T18:35:42.296Z,2.35
2023-02-01T18:38:09.513Z,2.03
2023-02-01T18:40:52.022Z,1.70
2023-02-01T18:43:19.004Z,1.58
2023-02-01T18:45:46.043Z,1.40
2023-02-01T18:48:13.873Z,2.22
2023-02-01T18:50:42.268Z,1.33
2023-02-01T18:53:20.177Z,1.48
2023-02-01T18:55:47.981Z,1.77
2023-02-01T18:58:16.118Z,1.40
2023-02-01T19:00:43.389Z,1.30
2023-02-01T19:03:14.900Z,1.30
2023-02-01T19:05:41.786Z,1.40
2023-02-01T19:08:08.758Z,1.45
2023-02-01T19:10:38.290Z,1.10
2023-02-01T19:13:05.189Z,2.05
2023-02-01T19:15:34.630Z,1.30
2023-02-01T19:18:01.553Z,1.30
2023-02-01T19:20:28.288Z,1.40
2023-02-01T19:22:55.027Z,2.95
2023-02-01T19:25:23.952Z,1.03
2023-02-01T19:27:51.148Z,1.05
2023-02-01T19:30:18.515Z,1.17
2023-02-01T19:32:45.486Z,1.63
2023-02-01T19:35:13.766Z,1.13
2023-02-01T19:37:43.533Z,1.30
2023-02-01T19:40:11.755Z,1.40
2023-02-01T19:42:38.489Z,1.43
2023-02-01T19:45:05.672Z,1.30
2023-02-01T19:47:32.544Z,1.17
2023-02-01T19:49:59.494Z,1.50
2023-02-01T19:52:26.612Z,0.98
2023-02-01T19:54:53.444Z,1.17
2023-02-01T19:57:20.192Z,0.97
2023-02-01T19:59:47.939Z,2.42
2023-02-01T20:02:14.810Z,1.40
2023-02-01T20:04:41.559Z,1.15
2023-02-01T20:07:11.063Z,1.05
2023-02-01T20:09:38.673Z,1.10
2023-02-01T20:12:05.761Z,1.00
2023-02-01T20:14:32.502Z,1.10
2023-02-01T20:16:59.239Z,1.20
2023-02-01T20:19:26.015Z,1.10
2023-02-01T20:21:52.836Z,0.90
2023-02-01T20:24:19.682Z,1.20
2023-02-01T20:26:49.067Z,1.13
2023-02-01T20:29:17.582Z,1.10
2023-02-01T20:31:45.815Z,1.27
2023-02-01T20:34:12.862Z,1.27
2023-02-01T20:36:39.712Z,1.00
2023-02-01T20:39:06.666Z,1.10
2023-02-01T20:41:33.641Z,1.00
2023-02-01T20:44:00.372Z,0.93
2023-02-01T20:46:27.166Z,1.10
2023-02-01T20:48:53.935Z,0.95
2023-02-01T20:51:21.179Z,1.10
2023-02-01T20:53:48.679Z,0.90
2023-02-01T20:56:15.652Z,1.20
2023-02-01T20:58:42.935Z,1.10
2023-02-01T21:01:10.053Z,1.00
2023-02-01T21:03:37.186Z,0.75
2023-02-01T21:06:05.215Z,0.80
2023-02-01T21:08:32.217Z,1.30
2023-02-01T21:11:10.677Z,0.82
2023-02-01T21:13:43.011Z,1.45
2023-02-01T21:16:13.527Z,1.05
2023-02-01T21:18:40.430Z,0.90
2023-02-01T21:21:08.582Z,0.98
2023-02-01T21:23:45.010Z,1.02
2023-02-01T21:26:17.334Z,0.98
2023-02-01T21:28:44.321Z,0.90
2023-02-01T21:31:11.182Z,0.98
2023-02-01T21:33:39.229Z,2.63
2023-02-01T21:36:07.123Z,1.08
2023-02-01T21:38:34.303Z,0.95
2023-02-01T21:41:19.609Z,1.15
2023-02-01T21:43:46.337Z,1.20
2023-02-01T21:46:13.219Z,1.13
2023-02-01T21:49:04.627Z,1.45
2023-02-01T21:51:28.390Z,1.25
2023-02-01T21:53:56.174Z,1.20
2023-02-01T21:56:23.311Z,1.30
2023-02-01T21:58:50.195Z,1.27
2023-02-01T22:01:16.998Z,1.55
2023-02-01T22:03:43.751Z,0.95
2023-02-01T22:06:10.487Z,0.95
2023-02-01T22:08:37.877Z,0.95
2023-02-01T22:11:05.258Z,2.88
2023-02-01T22:13:32.129Z,1.00
2023-02-01T22:15:58.892Z,1.05
2023-02-01T22:18:25.592Z,1.05
2023-02-01T22:20:58.879Z,0.93
2023-02-01T22:23:27.905Z,0.90
2023-02-01T22:26:01.594Z,0.70
2023-02-01T22:28:32.388Z,1.25
2023-02-01T22:31:04.472Z,0.80
2023-02-01T22:33:31.351Z,0.85
2023-02-01T22:35:58.107Z,0.90
2023-02-01T22:38:25.241Z,0.70
2023-02-01T22:41:00.208Z,0.95
2023-02-01T22:43:27.082Z,0.90
2023-02-01T22:45:54.238Z,1.00
2023-02-01T22:48:21.171Z,0.90
2023-02-01T22:50:47.950Z,1.10
2023-02-01T22:53:14.768Z,1.08
2023-02-01T22:55:42.432Z,0.98
2023-02-01T22:58:09.285Z,1.10
2023-02-01T23:00:35.982Z,1.00
2023-02-01T23:03:02.812Z,1.00
2023-02-01T23:05:29.589Z,0.95
2023-02-01T23:07:56.342Z,0.90
2023-02-01T23:10:23.180Z,0.80
2023-02-01T23:12:49.952Z,0.98
2023-02-01T23:15:17.461Z,0.75
2023-02-01T23:17:44.394Z,0.90
2023-02-01T23:20:16.561Z,0.98
2023-02-01T23:22:44.417Z,0.77
2023-02-01T23:25:11.761Z,0.98
2023-02-01T23:27:38.584Z,0.65
2023-02-01T23:30:06.114Z,0.70
2023-02-01T23:32:33.711Z,0.80
2023-02-01T23:35:00.928Z,0.80
2023-02-01T23:37:27.809Z,0.82
2023-02-01T23:39:54.560Z,0.68
2023-02-01T23:42:21.310Z,0.68
2023-02-01T23:44:48.076Z,0.80
2023-02-01T23:47:14.852Z,0.80
2023-02-01T23:49:41.663Z,0.80
2023-02-01T23:52:09.247Z,0.80
2023-02-01T23:54:36.146Z,0.80
2023-02-01T23:57:02.889Z,0.60
2023-02-01T23:59:32.411Z,1.00
